Terminal Aerodrome Forecast
Issued by NWS Duluth, MN

Home | Current Version | Previous Version | Text Only | Print | Product List | Glossary On
Versions: 1 2 3 4 5 6 7 8 9 10 11 12 13 14 15 16 17 18 19
000
FTUS43 KDLH 171600 AAA
TAFDLH
TAF AMD
KDLH 171639Z 1717/1812 34011G18KT P6SM -SN BKN025
     FM172200 33008KT P6SM SCT030 BKN035
     FM180100 34006KT P6SM SKC=

USA.gov is the U.S. government's official web portal to all federal, state and local government web resources and services.